sensor_id;sensor_type;location;lat;lon;timestamp;temperature;humidity
59146;DHT22;44928;53.074;6.646;2023-03-23T00:01:11;11.20;99.90
59146;DHT22;44928;53.074;6.646;2023-03-23T00:03:41;11.10;99.90
59146;DHT22;44928;53.074;6.646;2023-03-23T00:06:09;11.20;99.90
59146;DHT22;44928;53.074;6.646;2023-03-23T00:08:37;11.10;99.90
59146;DHT22;44928;53.074;6.646;2023-03-23T00:11:06;11.20;99.90
59146;DHT22;44928;53.074;6.646;2023-03-23T00:13:33;11.20;99.90
59146;DHT22;44928;53.074;6.646;2023-03-23T00:15:59;11.20;99.90
59146;DHT22;44928;53.074;6.646;2023-03-23T00:18:25;11.30;99.90
59146;DHT22;44928;53.074;6.646;2023-03-23T00:20:57;11.30;99.90
59146;DHT22;44928;53.074;6.646;2023-03-23T00:23:25;11.30;99.90
59146;DHT22;44928;53.074;6.646;2023-03-23T00:25:55;11.40;99.90
59146;DHT22;44928;53.074;6.646;2023-03-23T00:28:25;11.40;99.90
59146;DHT22;44928;53.074;6.646;2023-03-23T00:31:06;11.40;99.90
59146;DHT22;44928;53.074;6.646;2023-03-23T00:33:34;11.40;99.90
59146;DHT22;44928;53.074;6.646;2023-03-23T00:36:11;11.40;99.90
59146;DHT22;44928;53.074;6.646;2023-03-23T00:38:38;11.40;99.90
59146;DHT22;44928;53.074;6.646;2023-03-23T00:41:05;11.40;99.90
59146;DHT22;44928;53.074;6.646;2023-03-23T00:43:32;11.40;99.90
59146;DHT22;44928;53.074;6.646;2023-03-23T00:46:02;11.40;99.90
59146;DHT22;44928;53.074;6.646;2023-03-23T00:48:34;11.50;99.90
59146;DHT22;44928;53.074;6.646;2023-03-23T00:51:01;11.50;99.90
59146;DHT22;44928;53.074;6.646;2023-03-23T00:53:32;11.50;99.90
59146;DHT22;44928;53.074;6.646;2023-03-23T00:55:58;11.40;99.90
59146;DHT22;44928;53.074;6.646;2023-03-23T00:58:24;11.40;99.90
59146;DHT22;44928;53.074;6.646;2023-03-23T01:00:51;11.40;99.90
59146;DHT22;44928;53.074;6.646;2023-03-23T01:03:16;11.40;99.90
59146;DHT22;44928;53.074;6.646;2023-03-23T01:05:45;11.40;99.90
59146;DHT22;44928;53.074;6.646;2023-03-23T01:08:13;11.40;99.90
59146;DHT22;44928;53.074;6.646;2023-03-23T01:10:40;11.30;99.90
59146;DHT22;44928;53.074;6.646;2023-03-23T01:13:07;11.30;99.90
59146;DHT22;44928;53.074;6.646;2023-03-23T01:15:33;11.30;99.90
59146;DHT22;44928;53.074;6.646;2023-03-23T01:17:58;11.30;99.90
59146;DHT22;44928;53.074;6.646;2023-03-23T01:20:25;11.20;99.90
59146;DHT22;44928;53.074;6.646;2023-03-23T01:22:52;11.30;99.90
59146;DHT22;44928;53.074;6.646;2023-03-23T01:25:18;11.30;99.90
59146;DHT22;44928;53.074;6.646;2023-03-23T01:27:45;11.30;99.90
59146;DHT22;44928;53.074;6.646;2023-03-23T01:30:12;11.30;99.90
59146;DHT22;44928;53.074;6.646;2023-03-23T01:32:38;11.30;99.90
59146;DHT22;44928;53.074;6.646;2023-03-23T01:35:05;11.20;99.90
59146;DHT22;44928;53.074;6.646;2023-03-23T01:37:31;11.30;99.90
59146;DHT22;44928;53.074;6.646;2023-03-23T01:39:58;11.30;99.90
59146;DHT22;44928;53.074;6.646;2023-03-23T01:42:32;11.30;99.90
59146;DHT22;44928;53.074;6.646;2023-03-23T01:45:22;11.30;99.90
59146;DHT22;44928;53.074;6.646;2023-03-23T01:48:08;11.30;99.90
59146;DHT22;44928;53.074;6.646;2023-03-23T01:50:40;11.30;99.90
59146;DHT22;44928;53.074;6.646;2023-03-23T01:53:08;11.30;99.90
59146;DHT22;44928;53.074;6.646;2023-03-23T01:55:36;11.30;99.90
59146;DHT22;44928;53.074;6.646;2023-03-23T01:58:04;11.30;99.90
59146;DHT22;44928;53.074;6.646;2023-03-23T02:00:31;11.40;99.90
59146;DHT22;44928;53.074;6.646;2023-03-23T02:03:00;11.40;99.90
59146;DHT22;44928;53.074;6.646;2023-03-23T02:05:30;11.40;99.90
59146;DHT22;44928;53.074;6.646;2023-03-23T02:08:00;11.40;99.90
59146;DHT22;44928;53.074;6.646;2023-03-23T02:10:30;11.40;99.90
59146;DHT22;44928;53.074;6.646;2023-03-23T02:12:57;11.50;99.90
59146;DHT22;44928;53.074;6.646;2023-03-23T02:15:26;11.50;99.90
59146;DHT22;44928;53.074;6.646;2023-03-23T02:18:08;11.40;99.90
59146;DHT22;44928;53.074;6.646;2023-03-23T02:23:34;11.50;99.90
59146;DHT22;44928;53.074;6.646;2023-03-23T02:32:10;11.50;99.90
59146;DHT22;44928;53.074;6.646;2023-03-23T02:34:58;11.50;99.90
59146;DHT22;44928;53.074;6.646;2023-03-23T02:37:38;11.50;99.90
59146;DHT22;44928;53.074;6.646;2023-03-23T02:40:07;11.50;99.90
59146;DHT22;44928;53.074;6.646;2023-03-23T02:42:39;11.40;99.90
59146;DHT22;44928;53.074;6.646;2023-03-23T02:45:10;11.40;99.90
59146;DHT22;44928;53.074;6.646;2023-03-23T02:47:38;11.40;99.90
59146;DHT22;44928;53.074;6.646;2023-03-23T02:50:08;11.50;99.90
59146;DHT22;44928;53.074;6.646;2023-03-23T02:52:36;11.50;99.90
59146;DHT22;44928;53.074;6.646;2023-03-23T02:55:04;11.40;99.90
59146;DHT22;44928;53.074;6.646;2023-03-23T02:57:31;11.40;99.90
59146;DHT22;44928;53.074;6.646;2023-03-23T02:59:57;11.40;99.90
59146;DHT22;44928;53.074;6.646;2023-03-23T03:02:27;11.40;99.90
59146;DHT22;44928;53.074;6.646;2023-03-23T03:05:26;11.40;99.90
59146;DHT22;44928;53.074;6.646;2023-03-23T03:08:48;11.40;99.90
59146;DHT22;44928;53.074;6.646;2023-03-23T03:11:07;11.40;99.90
59146;DHT22;44928;53.074;6.646;2023-03-23T03:16:41;11.40;99.90
59146;DHT22;44928;53.074;6.646;2023-03-23T03:19:26;11.50;99.90
59146;DHT22;44928;53.074;6.646;2023-03-23T03:21:56;11.50;99.90
59146;DHT22;44928;53.074;6.646;2023-03-23T03:24:26;11.50;99.90
59146;DHT22;44928;53.074;6.646;2023-03-23T03:26:55;11.50;99.90
59146;DHT22;44928;53.074;6.646;2023-03-23T03:29:32;11.50;99.90
59146;DHT22;44928;53.074;6.646;2023-03-23T03:32:02;11.50;99.90
59146;DHT22;44928;53.074;6.646;2023-03-23T03:34:31;11.50;99.90
59146;DHT22;44928;53.074;6.646;2023-03-23T03:36:58;11.50;99.90
59146;DHT22;44928;53.074;6.646;2023-03-23T03:39:25;11.50;99.90
59146;DHT22;44928;53.074;6.646;2023-03-23T03:41:51;11.50;99.90
59146;DHT22;44928;53.074;6.646;2023-03-23T03:44:17;11.50;99.90
59146;DHT22;44928;53.074;6.646;2023-03-23T03:46:42;11.50;99.90
59146;DHT22;44928;53.074;6.646;2023-03-23T03:49:10;11.40;99.90
59146;DHT22;44928;53.074;6.646;2023-03-23T03:51:38;11.40;99.90
59146;DHT22;44928;53.074;6.646;2023-03-23T03:54:04;11.40;99.90
59146;DHT22;44928;53.074;6.646;2023-03-23T03:56:30;11.30;99.90
59146;DHT22;44928;53.074;6.646;2023-03-23T03:59:07;11.30;99.90
59146;DHT22;44928;53.074;6.646;2023-03-23T04:01:33;11.30;99.90
59146;DHT22;44928;53.074;6.646;2023-03-23T04:03:59;11.20;99.90
59146;DHT22;44928;53.074;6.646;2023-03-23T04:06:26;11.20;99.90
59146;DHT22;44928;53.074;6.646;2023-03-23T04:08:57;11.20;99.90
59146;DHT22;44928;53.074;6.646;2023-03-23T04:11:25;11.20;99.90
59146;DHT22;44928;53.074;6.646;2023-03-23T04:13:51;11.10;99.90
59146;DHT22;44928;53.074;6.646;2023-03-23T04:16:17;11.10;99.90
59146;DHT22;44928;53.074;6.646;2023-03-23T04:18:43;11.10;99.90
59146;DHT22;44928;53.074;6.646;2023-03-23T04:21:09;11.10;99.90
59146;DHT22;44928;53.074;6.646;2023-03-23T04:23:36;11.10;99.90
59146;DHT22;44928;53.074;6.646;2023-03-23T04:26:03;11.20;99.90
59146;DHT22;44928;53.074;6.646;2023-03-23T04:28:29;11.20;99.90
59146;DHT22;44928;53.074;6.646;2023-03-23T04:31:00;11.30;99.90
59146;DHT22;44928;53.074;6.646;2023-03-23T04:33:28;11.30;99.90
59146;DHT22;44928;53.074;6.646;2023-03-23T04:35:58;11.30;99.90
59146;DHT22;44928;53.074;6.646;2023-03-23T04:38:27;11.30;99.90
59146;DHT22;44928;53.074;6.646;2023-03-23T04:40:53;11.30;99.90
59146;DHT22;44928;53.074;6.646;2023-03-23T04:43:21;11.30;99.90
59146;DHT22;44928;53.074;6.646;2023-03-23T04:45:59;11.30;99.90
59146;DHT22;44928;53.074;6.646;2023-03-23T04:48:28;11.20;99.90
59146;DHT22;44928;53.074;6.646;2023-03-23T04:50:55;11.20;99.90
59146;DHT22;44928;53.074;6.646;2023-03-23T04:53:21;11.20;99.90
59146;DHT22;44928;53.074;6.646;2023-03-23T04:55:48;11.10;99.90
59146;DHT22;44928;53.074;6.646;2023-03-23T04:58:15;11.10;99.90
59146;DHT22;44928;53.074;6.646;2023-03-23T05:00:42;11.00;99.90
59146;DHT22;44928;53.074;6.646;2023-03-23T05:03:19;11.00;99.90
59146;DHT22;44928;53.074;6.646;2023-03-23T05:05:47;11.00;99.90
59146;DHT22;44928;53.074;6.646;2023-03-23T05:08:18;10.90;99.90
59146;DHT22;44928;53.074;6.646;2023-03-23T05:10:52;10.80;99.90
59146;DHT22;44928;53.074;6.646;2023-03-23T05:13:18;10.80;99.90
59146;DHT22;44928;53.074;6.646;2023-03-23T05:15:45;10.80;99.90
59146;DHT22;44928;53.074;6.646;2023-03-23T05:18:11;10.70;99.90
59146;DHT22;44928;53.074;6.646;2023-03-23T05:20:37;10.70;99.90
59146;DHT22;44928;53.074;6.646;2023-03-23T05:23:02;10.70;99.90
59146;DHT22;44928;53.074;6.646;2023-03-23T05:25:28;10.70;99.90
59146;DHT22;44928;53.074;6.646;2023-03-23T05:27:54;10.70;99.90
59146;DHT22;44928;53.074;6.646;2023-03-23T05:30:21;10.60;99.90
59146;DHT22;44928;53.074;6.646;2023-03-23T05:32:48;10.70;99.90
59146;DHT22;44928;53.074;6.646;2023-03-23T05:35:18;10.70;99.90
59146;DHT22;44928;53.074;6.646;2023-03-23T05:37:44;10.60;99.90
59146;DHT22;44928;53.074;6.646;2023-03-23T05:40:12;10.60;99.90
59146;DHT22;44928;53.074;6.646;2023-03-23T05:42:38;10.60;99.90
59146;DHT22;44928;53.074;6.646;2023-03-23T05:45:07;10.60;99.90
59146;DHT22;44928;53.074;6.646;2023-03-23T05:47:34;10.60;99.90
59146;DHT22;44928;53.074;6.646;2023-03-23T05:50:01;10.60;99.90
59146;DHT22;44928;53.074;6.646;2023-03-23T05:52:27;10.60;99.90
59146;DHT22;44928;53.074;6.646;2023-03-23T05:54:53;10.60;99.90
59146;DHT22;44928;53.074;6.646;2023-03-23T05:57:19;10.60;99.90
59146;DHT22;44928;53.074;6.646;2023-03-23T05:59:47;10.60;99.90
59146;DHT22;44928;53.074;6.646;2023-03-23T06:02:13;10.60;99.90
59146;DHT22;44928;53.074;6.646;2023-03-23T06:04:40;10.60;99.90
59146;DHT22;44928;53.074;6.646;2023-03-23T06:07:07;10.60;99.90
59146;DHT22;44928;53.074;6.646;2023-03-23T06:09:33;10.60;99.90
59146;DHT22;44928;53.074;6.646;2023-03-23T06:11:59;10.70;99.90
59146;DHT22;44928;53.074;6.646;2023-03-23T06:14:24;10.70;99.90
59146;DHT22;44928;53.074;6.646;2023-03-23T06:16:51;10.70;99.90
59146;DHT22;44928;53.074;6.646;2023-03-23T06:19:17;10.70;99.90
59146;DHT22;44928;53.074;6.646;2023-03-23T06:21:43;10.80;99.90
59146;DHT22;44928;53.074;6.646;2023-03-23T06:24:09;10.80;99.90
59146;DHT22;44928;53.074;6.646;2023-03-23T06:26:37;10.80;99.90
59146;DHT22;44928;53.074;6.646;2023-03-23T06:29:05;10.80;99.90
59146;DHT22;44928;53.074;6.646;2023-03-23T06:31:41;10.80;99.90
59146;DHT22;44928;53.074;6.646;2023-03-23T06:34:08;10.80;99.90
59146;DHT22;44928;53.074;6.646;2023-03-23T06:36:35;10.80;99.90
59146;DHT22;44928;53.074;6.646;2023-03-23T06:39:02;10.80;99.90
59146;DHT22;44928;53.074;6.646;2023-03-23T06:41:31;10.80;99.90
59146;DHT22;44928;53.074;6.646;2023-03-23T06:43:57;10.80;99.90
59146;DHT22;44928;53.074;6.646;2023-03-23T06:46:23;10.80;99.90
59146;DHT22;44928;53.074;6.646;2023-03-23T06:48:49;10.80;99.90
59146;DHT22;44928;53.074;6.646;2023-03-23T06:51:17;10.80;99.90
59146;DHT22;44928;53.074;6.646;2023-03-23T06:53:43;10.80;99.90
59146;DHT22;44928;53.074;6.646;2023-03-23T06:56:09;10.80;99.90
59146;DHT22;44928;53.074;6.646;2023-03-23T06:58:35;10.80;99.90
59146;DHT22;44928;53.074;6.646;2023-03-23T07:01:00;10.90;99.90
59146;DHT22;44928;53.074;6.646;2023-03-23T07:03:27;10.90;99.90
59146;DHT22;44928;53.074;6.646;2023-03-23T07:05:54;10.90;99.90
59146;DHT22;44928;53.074;6.646;2023-03-23T07:08:20;10.90;99.90
59146;DHT22;44928;53.074;6.646;2023-03-23T07:10:47;10.90;99.90
59146;DHT22;44928;53.074;6.646;2023-03-23T07:13:13;10.90;99.90
59146;DHT22;44928;53.074;6.646;2023-03-23T07:15:39;10.90;99.90
59146;DHT22;44928;53.074;6.646;2023-03-23T07:18:05;10.90;99.90
59146;DHT22;44928;53.074;6.646;2023-03-23T07:20:31;10.90;99.90
59146;DHT22;44928;53.074;6.646;2023-03-23T07:22:57;10.90;99.90
59146;DHT22;44928;53.074;6.646;2023-03-23T07:25:23;10.90;99.90
59146;DHT22;44928;53.074;6.646;2023-03-23T07:27:49;10.90;99.90
59146;DHT22;44928;53.074;6.646;2023-03-23T07:30:15;10.90;99.90
59146;DHT22;44928;53.074;6.646;2023-03-23T07:32:41;10.90;99.90
59146;DHT22;44928;53.074;6.646;2023-03-23T07:35:08;10.90;99.90
59146;DHT22;44928;53.074;6.646;2023-03-23T07:37:35;10.90;99.90
59146;DHT22;44928;53.074;6.646;2023-03-23T07:40:02;11.00;99.90
59146;DHT22;44928;53.074;6.646;2023-03-23T07:42:53;10.90;99.90
59146;DHT22;44928;53.074;6.646;2023-03-23T07:45:19;11.00;99.90
59146;DHT22;44928;53.074;6.646;2023-03-23T07:47:45;11.00;99.90
59146;DHT22;44928;53.074;6.646;2023-03-23T07:50:11;11.00;99.90
59146;DHT22;44928;53.074;6.646;2023-03-23T07:52:38;11.10;99.90
59146;DHT22;44928;53.074;6.646;2023-03-23T07:55:06;11.10;99.90
59146;DHT22;44928;53.074;6.646;2023-03-23T07:57:32;11.20;99.90
59146;DHT22;44928;53.074;6.646;2023-03-23T07:59:59;11.20;99.90
59146;DHT22;44928;53.074;6.646;2023-03-23T08:02:25;11.20;99.90
59146;DHT22;44928;53.074;6.646;2023-03-23T08:04:52;11.20;99.90
59146;DHT22;44928;53.074;6.646;2023-03-23T08:07:19;11.20;99.90
59146;DHT22;44928;53.074;6.646;2023-03-23T08:09:47;11.30;99.90
59146;DHT22;44928;53.074;6.646;2023-03-23T08:12:13;11.30;99.90
59146;DHT22;44928;53.074;6.646;2023-03-23T08:14:39;11.30;99.90
59146;DHT22;44928;53.074;6.646;2023-03-23T08:17:07;11.40;99.90
59146;DHT22;44928;53.074;6.646;2023-03-23T08:19:35;11.40;99.90
59146;DHT22;44928;53.074;6.646;2023-03-23T08:22:05;11.40;99.90
59146;DHT22;44928;53.074;6.646;2023-03-23T08:24:31;11.40;99.90
59146;DHT22;44928;53.074;6.646;2023-03-23T08:26:59;11.40;99.90
59146;DHT22;44928;53.074;6.646;2023-03-23T08:29:25;11.40;99.90
59146;DHT22;44928;53.074;6.646;2023-03-23T08:31:52;11.40;99.90
59146;DHT22;44928;53.074;6.646;2023-03-23T08:34:19;11.50;99.90
59146;DHT22;44928;53.074;6.646;2023-03-23T08:36:45;11.50;99.90
59146;DHT22;44928;53.074;6.646;2023-03-23T08:39:12;11.50;99.90
59146;DHT22;44928;53.074;6.646;2023-03-23T08:41:40;11.50;99.90
59146;DHT22;44928;53.074;6.646;2023-03-23T08:44:06;11.50;99.90
59146;DHT22;44928;53.074;6.646;2023-03-23T08:46:34;11.50;99.90
59146;DHT22;44928;53.074;6.646;2023-03-23T08:49:00;11.50;99.90
59146;DHT22;44928;53.074;6.646;2023-03-23T08:51:26;11.50;99.90
59146;DHT22;44928;53.074;6.646;2023-03-23T08:53:51;11.50;99.90
59146;DHT22;44928;53.074;6.646;2023-03-23T08:56:18;11.50;99.90
59146;DHT22;44928;53.074;6.646;2023-03-23T08:58:44;11.50;99.90
59146;DHT22;44928;53.074;6.646;2023-03-23T09:01:09;11.50;99.90
59146;DHT22;44928;53.074;6.646;2023-03-23T09:03:36;11.60;99.90
59146;DHT22;44928;53.074;6.646;2023-03-23T09:06:05;11.70;99.90
59146;DHT22;44928;53.074;6.646;2023-03-23T09:08:31;11.70;99.90
59146;DHT22;44928;53.074;6.646;2023-03-23T09:11:01;11.70;99.90
59146;DHT22;44928;53.074;6.646;2023-03-23T09:13:28;11.70;99.90
59146;DHT22;44928;53.074;6.646;2023-03-23T09:15:55;11.80;99.90
59146;DHT22;44928;53.074;6.646;2023-03-23T09:18:20;11.80;99.90
59146;DHT22;44928;53.074;6.646;2023-03-23T09:20:49;11.80;99.90
59146;DHT22;44928;53.074;6.646;2023-03-23T09:23:15;11.90;99.90
59146;DHT22;44928;53.074;6.646;2023-03-23T09:25:41;12.00;99.90
59146;DHT22;44928;53.074;6.646;2023-03-23T09:28:07;12.00;99.90
59146;DHT22;44928;53.074;6.646;2023-03-23T09:30:34;12.10;99.90
59146;DHT22;44928;53.074;6.646;2023-03-23T09:33:02;12.10;99.90
59146;DHT22;44928;53.074;6.646;2023-03-23T09:35:29;12.10;99.90
59146;DHT22;44928;53.074;6.646;2023-03-23T09:37:57;12.20;99.90
59146;DHT22;44928;53.074;6.646;2023-03-23T09:43:40;12.20;99.90
59146;DHT22;44928;53.074;6.646;2023-03-23T09:47:10;12.10;99.90
59146;DHT22;44928;53.074;6.646;2023-03-23T09:49:36;12.20;99.90
59146;DHT22;44928;53.074;6.646;2023-03-23T09:52:27;12.30;99.90
59146;DHT22;44928;53.074;6.646;2023-03-23T09:54:58;12.40;99.90
59146;DHT22;44928;53.074;6.646;2023-03-23T09:57:39;12.60;99.90
59146;DHT22;44928;53.074;6.646;2023-03-23T10:00:14;12.70;99.90
59146;DHT22;44928;53.074;6.646;2023-03-23T10:03:06;12.80;99.90
59146;DHT22;44928;53.074;6.646;2023-03-23T10:05:36;12.80;99.90
59146;DHT22;44928;53.074;6.646;2023-03-23T10:08:11;12.80;99.90
59146;DHT22;44928;53.074;6.646;2023-03-23T10:11:02;12.60;99.90
59146;DHT22;44928;53.074;6.646;2023-03-23T10:15:57;12.60;99.90
59146;DHT22;44928;53.074;6.646;2023-03-23T10:21:16;12.90;99.90
59146;DHT22;44928;53.074;6.646;2023-03-23T10:24:08;13.10;99.90
59146;DHT22;44928;53.074;6.646;2023-03-23T10:26:54;13.10;99.90
59146;DHT22;44928;53.074;6.646;2023-03-23T10:29:26;13.20;99.90
59146;DHT22;44928;53.074;6.646;2023-03-23T10:32:00;13.20;99.90
59146;DHT22;44928;53.074;6.646;2023-03-23T10:35:02;13.20;99.90
59146;DHT22;44928;53.074;6.646;2023-03-23T10:39:54;13.10;99.90
59146;DHT22;44928;53.074;6.646;2023-03-23T10:42:39;13.10;99.90
59146;DHT22;44928;53.074;6.646;2023-03-23T10:45:26;13.30;99.90
59146;DHT22;44928;53.074;6.646;2023-03-23T10:47:56;13.50;99.90
59146;DHT22;44928;53.074;6.646;2023-03-23T10:50:31;13.40;99.90
59146;DHT22;44928;53.074;6.646;2023-03-23T10:52:59;13.40;99.90
59146;DHT22;44928;53.074;6.646;2023-03-23T10:55:39;13.60;99.90
59146;DHT22;44928;53.074;6.646;2023-03-23T10:58:29;13.80;99.90
59146;DHT22;44928;53.074;6.646;2023-03-23T11:00:56;13.80;99.90
59146;DHT22;44928;53.074;6.646;2023-03-23T11:06:06;14.10;99.90
59146;DHT22;44928;53.074;6.646;2023-03-23T11:08:48;14.20;99.90
59146;DHT22;44928;53.074;6.646;2023-03-23T11:11:18;14.10;99.90
59146;DHT22;44928;53.074;6.646;2023-03-23T11:13:49;14.00;99.90
59146;DHT22;44928;53.074;6.646;2023-03-23T11:16:31;13.80;99.90
59146;DHT22;44928;53.074;6.646;2023-03-23T11:19:11;13.80;99.90
59146;DHT22;44928;53.074;6.646;2023-03-23T11:21:38;14.00;99.90
59146;DHT22;44928;53.074;6.646;2023-03-23T11:24:05;14.10;99.90
59146;DHT22;44928;53.074;6.646;2023-03-23T11:26:33;14.10;99.90
59146;DHT22;44928;53.074;6.646;2023-03-23T11:29:18;14.10;99.90
59146;DHT22;44928;53.074;6.646;2023-03-23T11:37:05;14.20;99.90
59146;DHT22;44928;53.074;6.646;2023-03-23T11:39:32;14.20;99.90
59146;DHT22;44928;53.074;6.646;2023-03-23T11:42:01;14.20;99.90
59146;DHT22;44928;53.074;6.646;2023-03-23T11:44:40;14.30;99.90
59146;DHT22;44928;53.074;6.646;2023-03-23T11:47:37;14.30;99.90
59146;DHT22;44928;53.074;6.646;2023-03-23T11:50:24;14.30;99.90
59146;DHT22;44928;53.074;6.646;2023-03-23T11:58:43;14.10;99.90
59146;DHT22;44928;53.074;6.646;2023-03-23T12:12:37;13.80;99.90
59146;DHT22;44928;53.074;6.646;2023-03-23T12:18:28;14.00;99.90
59146;DHT22;44928;53.074;6.646;2023-03-23T12:29:45;14.90;95.90
59146;DHT22;44928;53.074;6.646;2023-03-23T12:32:22;14.90;90.20
59146;DHT22;44928;53.074;6.646;2023-03-23T12:54:49;14.70;89.10
59146;DHT22;44928;53.074;6.646;2023-03-23T12:57:23;14.60;98.60
59146;DHT22;44928;53.074;6.646;2023-03-23T13:02:30;14.60;98.00
59146;DHT22;44928;53.074;6.646;2023-03-23T13:07:58;14.50;91.60
59146;DHT22;44928;53.074;6.646;2023-03-23T13:10:29;14.40;97.30
59146;DHT22;44928;53.074;6.646;2023-03-23T13:12:56;14.40;99.90
59146;DHT22;44928;53.074;6.646;2023-03-23T13:18:11;14.40;99.90
59146;DHT22;44928;53.074;6.646;2023-03-23T13:21:04;14.40;99.90
59146;DHT22;44928;53.074;6.646;2023-03-23T13:28:50;14.40;99.90
59146;DHT22;44928;53.074;6.646;2023-03-23T13:31:21;14.60;99.90
59146;DHT22;44928;53.074;6.646;2023-03-23T13:33:52;14.70;99.90
59146;DHT22;44928;53.074;6.646;2023-03-23T13:36:35;15.00;99.90
59146;DHT22;44928;53.074;6.646;2023-03-23T13:39:06;15.10;97.70
59146;DHT22;44928;53.074;6.646;2023-03-23T13:42:02;15.10;99.90
59146;DHT22;44928;53.074;6.646;2023-03-23T13:49:50;15.30;96.90
59146;DHT22;44928;53.074;6.646;2023-03-23T13:52:35;15.20;87.80
59146;DHT22;44928;53.074;6.646;2023-03-23T13:57:54;14.90;91.50
59146;DHT22;44928;53.074;6.646;2023-03-23T14:05:37;15.00;99.60
59146;DHT22;44928;53.074;6.646;2023-03-23T14:08:13;15.20;95.10
59146;DHT22;44928;53.074;6.646;2023-03-23T14:10:43;15.30;93.50
59146;DHT22;44928;53.074;6.646;2023-03-23T14:13:20;15.20;84.80
59146;DHT22;44928;53.074;6.646;2023-03-23T14:16:24;15.00;88.90
59146;DHT22;44928;53.074;6.646;2023-03-23T14:19:00;15.10;94.80
59146;DHT22;44928;53.074;6.646;2023-03-23T14:24:12;15.50;94.10
59146;DHT22;44928;53.074;6.646;2023-03-23T14:26:39;15.60;90.60
59146;DHT22;44928;53.074;6.646;2023-03-23T14:29:06;15.60;88.60
59146;DHT22;44928;53.074;6.646;2023-03-23T14:31:32;15.60;89.90
59146;DHT22;44928;53.074;6.646;2023-03-23T14:34:03;15.60;93.50
59146;DHT22;44928;53.074;6.646;2023-03-23T14:36:31;15.60;83.90
59146;DHT22;44928;53.074;6.646;2023-03-23T14:41:34;15.30;93.90
59146;DHT22;44928;53.074;6.646;2023-03-23T14:44:02;15.30;93.80
59146;DHT22;44928;53.074;6.646;2023-03-23T14:46:30;15.50;96.60
59146;DHT22;44928;53.074;6.646;2023-03-23T14:48:59;15.50;96.60
59146;DHT22;44928;53.074;6.646;2023-03-23T14:51:25;15.60;93.20
59146;DHT22;44928;53.074;6.646;2023-03-23T14:53:53;15.60;94.70
59146;DHT22;44928;53.074;6.646;2023-03-23T14:56:21;15.50;93.70
59146;DHT22;44928;53.074;6.646;2023-03-23T14:58:50;15.50;92.20
59146;DHT22;44928;53.074;6.646;2023-03-23T15:01:27;15.50;95.20
59146;DHT22;44928;53.074;6.646;2023-03-23T15:06:40;15.60;84.30
59146;DHT22;44928;53.074;6.646;2023-03-23T15:09:12;15.50;87.30
59146;DHT22;44928;53.074;6.646;2023-03-23T15:11:39;15.60;86.50
59146;DHT22;44928;53.074;6.646;2023-03-23T15:14:19;15.60;91.20
59146;DHT22;44928;53.074;6.646;2023-03-23T15:16:53;15.60;90.50
59146;DHT22;44928;53.074;6.646;2023-03-23T15:19:37;15.70;90.90
59146;DHT22;44928;53.074;6.646;2023-03-23T15:22:23;15.70;88.80
59146;DHT22;44928;53.074;6.646;2023-03-23T15:24:52;15.60;86.20
59146;DHT22;44928;53.074;6.646;2023-03-23T15:27:29;15.60;91.00
59146;DHT22;44928;53.074;6.646;2023-03-23T15:29:57;15.60;92.00
59146;DHT22;44928;53.074;6.646;2023-03-23T15:32:31;15.60;76.40
59146;DHT22;44928;53.074;6.646;2023-03-23T15:35:10;15.60;84.10
59146;DHT22;44928;53.074;6.646;2023-03-23T15:37:42;15.60;80.10
59146;DHT22;44928;53.074;6.646;2023-03-23T15:40:16;15.60;80.30
59146;DHT22;44928;53.074;6.646;2023-03-23T15:42:42;15.50;76.90
59146;DHT22;44928;53.074;6.646;2023-03-23T15:47:47;15.60;83.00
59146;DHT22;44928;53.074;6.646;2023-03-23T15:50:17;15.50;74.90
59146;DHT22;44928;53.074;6.646;2023-03-23T15:52:44;15.50;81.30
59146;DHT22;44928;53.074;6.646;2023-03-23T15:55:25;15.60;83.10
59146;DHT22;44928;53.074;6.646;2023-03-23T15:57:52;15.60;85.50
59146;DHT22;44928;53.074;6.646;2023-03-23T16:00:20;15.60;81.50
59146;DHT22;44928;53.074;6.646;2023-03-23T16:03:15;15.60;74.90
59146;DHT22;44928;53.074;6.646;2023-03-23T16:05:42;15.40;77.20
59146;DHT22;44928;53.074;6.646;2023-03-23T16:08:10;15.30;79.70
59146;DHT22;44928;53.074;6.646;2023-03-23T16:10:37;15.30;76.10
59146;DHT22;44928;53.074;6.646;2023-03-23T16:13:03;15.10;83.20
59146;DHT22;44928;53.074;6.646;2023-03-23T16:15:30;15.00;89.10
59146;DHT22;44928;53.074;6.646;2023-03-23T16:17:56;14.80;90.70
59146;DHT22;44928;53.074;6.646;2023-03-23T16:20:22;14.70;94.70
59146;DHT22;44928;53.074;6.646;2023-03-23T16:22:49;14.70;96.30
59146;DHT22;44928;53.074;6.646;2023-03-23T16:25:16;14.50;96.80
59146;DHT22;44928;53.074;6.646;2023-03-23T16:27:44;14.50;96.30
59146;DHT22;44928;53.074;6.646;2023-03-23T16:32:42;14.50;97.00
59146;DHT22;44928;53.074;6.646;2023-03-23T16:35:09;14.40;96.70
59146;DHT22;44928;53.074;6.646;2023-03-23T16:37:35;14.40;96.80
59146;DHT22;44928;53.074;6.646;2023-03-23T16:40:02;14.40;97.80
59146;DHT22;44928;53.074;6.646;2023-03-23T16:42:28;14.40;98.00
59146;DHT22;44928;53.074;6.646;2023-03-23T16:44:54;14.30;97.50
59146;DHT22;44928;53.074;6.646;2023-03-23T16:47:20;14.20;98.60
59146;DHT22;44928;53.074;6.646;2023-03-23T16:49:50;14.20;99.10
59146;DHT22;44928;53.074;6.646;2023-03-23T16:52:17;14.10;99.90
59146;DHT22;44928;53.074;6.646;2023-03-23T16:54:43;14.10;99.90
59146;DHT22;44928;53.074;6.646;2023-03-23T16:57:09;14.00;99.90
59146;DHT22;44928;53.074;6.646;2023-03-23T16:59:34;14.00;99.90
59146;DHT22;44928;53.074;6.646;2023-03-23T17:02:01;13.90;99.90
59146;DHT22;44928;53.074;6.646;2023-03-23T17:04:29;13.90;99.90
59146;DHT22;44928;53.074;6.646;2023-03-23T17:06:55;13.80;99.90
59146;DHT22;44928;53.074;6.646;2023-03-23T17:09:26;13.70;99.90
59146;DHT22;44928;53.074;6.646;2023-03-23T17:11:53;13.70;99.90
59146;DHT22;44928;53.074;6.646;2023-03-23T17:14:20;13.60;99.90
59146;DHT22;44928;53.074;6.646;2023-03-23T17:16:46;13.60;99.90
59146;DHT22;44928;53.074;6.646;2023-03-23T17:19:12;13.60;99.90
59146;DHT22;44928;53.074;6.646;2023-03-23T17:21:39;13.50;99.90
59146;DHT22;44928;53.074;6.646;2023-03-23T17:24:06;13.40;99.90
59146;DHT22;44928;53.074;6.646;2023-03-23T17:26:32;13.40;99.90
59146;DHT22;44928;53.074;6.646;2023-03-23T17:28:57;13.40;99.90
59146;DHT22;44928;53.074;6.646;2023-03-23T17:31:23;13.30;99.90
59146;DHT22;44928;53.074;6.646;2023-03-23T17:33:49;13.30;99.90
59146;DHT22;44928;53.074;6.646;2023-03-23T17:36:17;13.30;99.90
59146;DHT22;44928;53.074;6.646;2023-03-23T17:38:43;13.20;99.90
59146;DHT22;44928;53.074;6.646;2023-03-23T17:41:09;13.20;99.90
59146;DHT22;44928;53.074;6.646;2023-03-23T17:43:37;13.20;99.90
59146;DHT22;44928;53.074;6.646;2023-03-23T17:46:06;13.20;99.90
59146;DHT22;44928;53.074;6.646;2023-03-23T17:48:32;13.10;99.90